This is the latest recevied weather packets stored in our database for station/object OM2RC-6. If no packets are shown the sender has not sent any weather packets the latest 10 day(s).
| Time | Temp. | Humidity | Pressure | Rain* | Wind** | Luminosity | Snow |
|---|---|---|---|---|---|---|---|
| 1778165465 | 21.11° C | 51% | 1013.6 hPa | - | - | - | - |
| 1778165162 | 22.22° C | 50% | 1013.6 hPa | - | - | - | - |
| 1778164860 | 21.67° C | 49% | 1013.6 hPa | - | - | - | - |
| 1778164257 | 21.11° C | 51% | 1013.6 hPa | - | - | - | - |
| 1778163955 | 21.67° C | 49% | 1013.6 hPa | - | - | - | - |
| 1778163653 | 23.33° C | 47% | 1013.7 hPa | - | - | - | - |
| 1778163352 | 22.22° C | 50% | 1013.7 hPa | - | - | - | - |
| 1778163051 | 21.11° C | 49% | 1013.8 hPa | - | - | - | - |
| 1778162750 | 21.11° C | 58% | 1013.9 hPa | - | - | - | - |
| 1778162449 | 21.11° C | 59% | 1013.9 hPa | - | - | - | - |
| 1778162148 | 21.11° C | 61% | 1014 hPa | - | - | - | - |
| 1778161847 | 23.33° C | 56% | 1013.9 hPa | - | - | - | - |
| 1778161546 | 21.11° C | 60% | 1014.1 hPa | - | - | - | - |
| 1778161244 | 21.11° C | 59% | 1014.1 hPa | - | - | - | - |
| 1778160943 | 21.11° C | 63% | 1014 hPa | - | - | - | - |
| 1778160642 | 21.11° C | 66% | 1014 hPa | - | - | - | - |
| 1778160341 | 20.56° C | 66% | 1014 hPa | - | - | - | - |
| 1778160040 | 20° C | 70% | 1014.1 hPa | - | - | - | - |
| 1778159739 | 20° C | 68% | 1014 hPa | - | - | - | - |
| 1778159438 | 19.44° C | 73% | 1014.1 hPa | - | - | - | - |
| 1778159137 | 18.89° C | 76% | 1014.2 hPa | - | - | - | - |
| 1778158835 | 18.33° C | 76% | 1014.2 hPa | - | - | - | - |
| 1778158533 | 18.89° C | 77% | 1014.2 hPa | - | - | - | - |
| 1778158232 | 18.33° C | 78% | 1014.3 hPa | - | - | - | - |
| 1778157929 | 18.33° C | 78% | 1014.2 hPa | - | - | - | - |
* Rain since midnight (hover to see other rain measurements)
** Current wind speed in m/s (hover to see current wind gust speed)